Time;durP1;ratioP1;P1;durP2;ratioP2;P2;SDS_P1;SDS_P2;PMS_P1;PMS_P2;Temp;Humidity;BMP_temperature;BMP_pressure;BME280_temperature;BME280_humidity;BME280_pressure;Samples;Min_cycle;Max_cycle;Signal;HPM_P1;HPM_P2
2023/08/10 00:00:37;;;;;;;9.38;4.65;;;;;;;15.33;74.18;99165.97;5028226;28;20609;-81
2023/08/10 00:03:03;;;;;;;11.32;4.05;;;;;;;14.73;74.64;99156.84;5030662;28;20036;-81
2023/08/10 00:05:29;;;;;;;8.38;4.55;;;;;;;15.17;74.93;99159.78;5016288;28;20037;-81
2023/08/10 00:07:55;;;;;;;4.97;4.10;;;;;;;15.12;74.04;99149.03;5029655;28;20565;-81
2023/08/10 00:10:20;;;;;;;7.15;4.63;;;;;;;15.11;74.46;99157.38;5031130;28;20588;-81
2023/08/10 00:12:46;;;;;;;7.30;4.80;;;;;;;14.76;75.53;99156.31;5029584;28;20044;-80
2023/08/10 00:15:11;;;;;;;6.50;5.38;;;;;;;14.84;75.10;99168.41;5032218;28;20041;-81
2023/08/10 00:17:37;;;;;;;6.32;4.53;;;;;;;14.80;74.73;99146.63;5032398;28;20537;-81
2023/08/10 00:20:05;;;;;;;9.25;5.30;;;;;;;15.01;74.34;99161.69;5008302;28;20087;-82
2023/08/10 00:22:30;;;;;;;10.63;4.82;;;;;;;14.98;74.10;99153.34;5027706;28;20076;-81
2023/08/10 00:24:56;;;;;;;7.93;5.10;;;;;;;14.57;74.23;99163.25;4995545;28;20511;-83
2023/08/10 00:27:22;;;;;;;8.05;5.15;;;;;;;14.49;75.38;99163.78;5019927;28;20061;-81
2023/08/10 00:29:47;;;;;;;8.25;4.90;;;;;;;14.32;74.53;99152.47;5031260;28;20556;-81
2023/08/10 00:32:14;;;;;;;9.40;4.97;;;;;;;14.54;75.18;99154.94;5011528;28;20040;-81
2023/08/10 00:34:42;;;;;;;8.07;4.75;;;;;;;14.74;74.41;99161.13;5010551;28;20022;-83
2023/08/10 00:37:07;;;;;;;9.88;4.68;;;;;;;14.81;74.41;99153.59;5031058;28;20029;-81
2023/08/10 00:39:32;;;;;;;7.32;4.85;;;;;;;14.76;74.63;99164.38;5010651;28;20041;-82
2023/08/10 00:41:58;;;;;;;6.97;5.07;;;;;;;14.79;73.42;99166.50;5029721;28;20374;-83
2023/08/10 00:44:23;;;;;;;7.75;5.13;;;;;;;14.77;74.36;99162.47;5033978;28;20082;-83
2023/08/10 00:46:49;;;;;;;7.35;5.20;;;;;;;14.78;74.16;99172.16;5029013;28;20053;-80
2023/08/10 00:49:15;;;;;;;6.68;4.38;;;;;;;14.52;74.67;99149.03;5031030;28;20047;-81
2023/08/10 00:51:40;;;;;;;7.70;5.15;;;;;;;14.58;74.01;99164.88;5013797;28;20025;-83
2023/08/10 00:54:06;;;;;;;10.13;4.97;;;;;;;14.57;74.61;99157.09;5029748;28;20033;-83
2023/08/10 00:56:32;;;;;;;11.20;5.05;;;;;;;14.61;74.41;99158.94;4991288;28;20509;-83
2023/08/10 00:58:57;;;;;;;6.30;4.15;;;;;;;14.59;73.78;99144.19;5026700;28;20108;-83
2023/08/10 01:01:23;;;;;;;8.65;5.30;;;;;;;14.67;74.21;99167.84;5026491;28;20049;-83
2023/08/10 01:03:48;;;;;;;6.57;4.78;;;;;;;14.62;74.20;99165.16;4994742;28;20037;-82
2023/08/10 01:06:52;;;;;;;8.75;4.88;;;;;;;14.60;73.78;99159.22;5030173;28;20033;-83
2023/08/10 01:09:36;;;;;;;8.43;4.95;;;;;;;14.46;74.14;99172.38;5027265;28;20061;-83
2023/08/10 01:12:22;;;;;;;7.65;4.90;;;;;;;14.58;74.11;99164.88;5011961;28;20044;-83
2023/08/10 01:15:32;;;;;;;6.35;5.25;;;;;;;14.45;74.76;99176.13;5027054;28;20037;-83
2023/08/10 01:18:00;;;;;;;6.03;4.70;;;;;;;14.44;74.26;99168.34;4964334;28;20062;-82
2023/08/10 01:20:28;;;;;;;10.70;4.40;;;;;;;14.52;74.12;99167.81;4982054;28;20041;-83
2023/08/10 01:22:56;;;;;;;12.32;5.82;;;;;;;14.53;73.88;99177.47;5028503;28;20064;-83
2023/08/10 01:25:24;;;;;;;8.43;4.22;;;;;;;14.39;74.19;99161.09;5025383;28;20044;-83
2023/08/10 01:27:49;;;;;;;9.35;4.28;;;;;;;14.61;73.73;99191.19;5025945;28;20377;-83
2023/08/10 01:30:15;;;;;;;7.72;4.75;;;;;;;14.37;74.22;99167.78;5029275;28;20033;-83
2023/08/10 01:32:41;;;;;;;10.73;5.22;;;;;;;14.33;73.89;99194.34;5010190;28;20033;-84
2023/08/10 01:35:06;;;;;;;5.82;4.30;;;;;;;13.95;75.64;99190.16;5029508;28;20048;-83
2023/08/10 01:37:33;;;;;;;5.20;4.22;;;;;;;14.36;73.92;99195.72;5024834;28;20485;-83
2023/08/10 01:39:59;;;;;;;6.25;5.00;;;;;;;14.10;75.05;99192.91;5029412;28;20035;-83
2023/08/10 01:42:25;;;;;;;6.30;4.53;;;;;;;13.83;74.88;99180.69;5012746;28;20049;-83
2023/08/10 01:44:50;;;;;;;7.60;4.68;;;;;;;14.10;74.69;99200.16;5027891;28;20123;-83
2023/08/10 01:47:48;;;;;;;6.80;4.60;;;;;;;13.92;75.36;99203.28;5029364;28;20117;-83
2023/08/10 01:50:18;;;;;;;5.53;4.18;;;;;;;14.31;74.29;99199.19;5014588;28;20409;-83
2023/08/10 01:52:51;;;;;;;7.43;4.57;;;;;;;14.31;74.13;99206.44;5027608;28;20025;-83
2023/08/10 01:55:17;;;;;;;6.68;4.50;;;;;;;14.19;74.00;99198.59;5027600;28;20042;-83
2023/08/10 01:57:44;;;;;;;6.93;4.80;;;;;;;14.26;74.29;99199.94;5012258;28;20273;-83
2023/08/10 02:00:12;;;;;;;7.70;4.78;;;;;;;14.35;74.09;99199.47;5027679;28;20029;-83
2023/08/10 02:02:38;;;;;;;9.15;4.82;;;;;;;14.07;74.52;99185.38;5026499;28;20083;-82
2023/08/10 02:05:04;;;;;;;9.90;4.95;;;;;;;14.28;74.58;99197.00;5043381;28;20037;-83
2023/08/10 02:07:30;;;;;;;7.47;5.18;;;;;;;14.26;74.17;99193.78;5027696;28;20049;-82
2023/08/10 02:09:55;;;;;;;6.60;4.38;;;;;;;14.30;74.41;99202.13;5024510;28;20072;-83
2023/08/10 02:12:21;;;;;;;7.38;4.53;;;;;;;14.16;74.37;99202.59;5012727;28;20535;-83
2023/08/10 02:14:46;;;;;;;5.53;4.40;;;;;;;14.16;74.57;99189.16;4996617;28;20031;-83
2023/08/10 02:17:11;;;;;;;8.52;5.22;;;;;;;14.07;75.13;99197.97;5026044;28;20050;-83
2023/08/10 02:19:37;;;;;;;7.53;5.35;;;;;;;14.21;74.87;99201.81;5025948;28;20092;-83
2023/08/10 02:22:03;;;;;;;7.13;5.38;;;;;;;14.08;74.80;99184.31;5026685;28;20045;-83
2023/08/10 02:24:29;;;;;;;8.23;4.65;;;;;;;14.25;74.44;99209.06;5009797;28;20033;-83
2023/08/10 02:26:55;;;;;;;7.15;4.43;;;;;;;14.05;74.64;99192.88;5027136;28;20041;-83
2023/08/10 02:29:20;;;;;;;6.00;4.18;;;;;;;14.15;74.82;99211.69;5008806;28;20362;-83
2023/08/10 02:31:46;;;;;;;5.70;4.53;;;;;;;14.05;74.88;99195.56;5029318;28;20107;-83
2023/08/10 02:34:12;;;;;;;8.50;5.15;;;;;;;14.17;75.05;99209.59;5021936;28;20037;-83
2023/08/10 02:36:37;;;;;;;8.13;5.15;;;;;;;14.16;74.56;99204.47;5009457;28;20033;-83
2023/08/10 02:39:05;;;;;;;9.68;5.00;;;;;;;13.70;75.60;99205.31;5023139;28;20468;-82
2023/08/10 02:41:30;;;;;;;6.10;4.50;;;;;;;14.13;75.42;99219.22;5022786;28;20029;-83
2023/08/10 02:43:56;;;;;;;8.15;4.35;;;;;;;13.97;75.01;99203.31;5031510;28;20115;-83
2023/08/10 02:46:21;;;;;;;7.55;4.97;;;;;;;13.96;74.99;99228.53;5029576;28;20033;-83
2023/08/10 02:48:46;;;;;;;7.13;5.55;;;;;;;13.75;75.91;99199.97;5027896;28;20424;-82
2023/08/10 02:51:12;;;;;;;6.80;5.13;;;;;;;13.87;75.44;99204.06;5009833;28;20036;-82
2023/08/10 02:53:37;;;;;;;6.55;4.50;;;;;;;13.94;75.40;99207.31;4994731;28;20477;-83
2023/08/10 02:56:03;;;;;;;8.63;5.43;;;;;;;14.01;75.33;99210.59;5027216;28;20083;-83
2023/08/10 02:58:29;;;;;;;5.93;4.72;;;;;;;13.89;75.08;99222.59;5010846;28;20433;-83
2023/08/10 03:00:55;;;;;;;7.38;4.50;;;;;;;13.96;75.40;99225.84;5029336;28;20039;-83
2023/08/10 03:03:21;;;;;;;9.20;5.22;;;;;;;13.81;75.56;99215.03;5032815;28;20056;-83
2023/08/10 03:05:46;;;;;;;7.65;4.75;;;;;;;13.94;75.11;99212.69;5029777;28;20026;-83
2023/08/10 03:08:12;;;;;;;7.70;4.90;;;;;;;13.94;75.44;99223.44;5032843;28;20595;-83
2023/08/10 03:10:37;;;;;;;8.93;5.20;;;;;;;13.93;75.35;99218.34;5037296;28;20461;-83
2023/08/10 03:13:04;;;;;;;6.28;4.20;;;;;;;13.92;75.20;99214.84;5016824;28;20037;-83
2023/08/10 03:15:30;;;;;;;8.32;4.60;;;;;;;13.87;75.23;99216.69;5027249;28;20481;-83
2023/08/10 03:17:55;;;;;;;7.15;4.78;;;;;;;13.77;75.31;99219.31;5029606;28;20033;-83
2023/08/10 03:20:21;;;;;;;5.78;4.88;;;;;;;13.81;75.30;99215.03;5013153;28;20044;-82
2023/08/10 03:22:47;;;;;;;5.70;4.47;;;;;;;13.59;75.59;99196.41;5014312;28;20033;-83
2023/08/10 03:25:12;;;;;;;9.85;4.88;;;;;;;13.39;76.25;99221.22;5013771;28;20397;-83
2023/08/10 03:27:38;;;;;;;9.82;5.35;;;;;;;13.74;75.74;99233.25;5030865;28;20079;-83
2023/08/10 03:30:04;;;;;;;10.02;5.35;;;;;;;13.18;76.75;99235.53;5025832;28;20041;-83
2023/08/10 03:32:30;;;;;;;8.15;5.22;;;;;;;13.47;75.54;99219.94;5027109;28;20040;-83
2023/08/10 03:34:55;;;;;;;5.35;4.85;;;;;;;13.66;75.46;99239.91;5026524;28;20025;-83
2023/08/10 03:37:21;;;;;;;6.38;5.00;;;;;;;13.38;75.32;99216.94;5031186;28;20054;-83
2023/08/10 03:39:46;;;;;;;7.32;5.43;;;;;;;13.42;75.16;99212.66;5030036;28;20462;-83
2023/08/10 03:42:12;;;;;;;8.20;5.55;;;;;;;13.58;75.45;99248.44;5028502;28;20033;-83
2023/08/10 03:44:37;;;;;;;7.00;4.85;;;;;;;13.64;75.15;99251.94;5029091;28;20032;-82
2023/08/10 03:47:03;;;;;;;7.00;5.20;;;;;;;13.66;74.86;99244.44;5029413;28;20045;-83
2023/08/10 03:49:28;;;;;;;7.75;4.65;;;;;;;13.25;74.79;99228.09;5031660;28;20032;-83
2023/08/10 03:51:54;;;;;;;7.15;4.80;;;;;;;13.08;76.20;99219.38;5029440;28;20678;-82
2023/08/10 03:54:19;;;;;;;5.45;4.88;;;;;;;12.92;76.36;99246.22;5012641;28;20033;-83
2023/08/10 03:56:45;;;;;;;7.55;4.95;;;;;;;13.19;76.07;99250.53;5030620;28;20029;-83
2023/08/10 03:59:12;;;;;;;6.60;4.78;;;;;;;13.48;75.37;99248.34;5029026;28;20072;-83
2023/08/10 04:01:37;;;;;;;9.02;5.13;;;;;;;13.37;75.30;99255.50;5026192;28;20065;-83
2023/08/10 04:04:03;;;;;;;7.03;5.38;;;;;;;13.02;76.17;99257.84;5023082;28;20491;-83
2023/08/10 04:06:29;;;;;;;6.10;4.80;;;;;;;13.14;74.94;99252.38;5026048;28;20026;-83
2023/08/10 04:08:55;;;;;;;7.30;4.95;;;;;;;13.14;76.36;99260.41;5005490;28;20057;-82
2023/08/10 04:11:20;;;;;;;6.72;5.22;;;;;;;13.30;75.24;99254.13;5026158;28;20045;-82
2023/08/10 04:13:46;;;;;;;7.25;5.07;;;;;;;13.43;75.16;99265.22;5012534;28;20033;-83
2023/08/10 04:16:11;;;;;;;8.90;4.53;;;;;;;13.23;74.97;99251.66;5012861;28;20044;-82
2023/08/10 04:18:37;;;;;;;6.43;4.40;;;;;;;13.37;75.08;99263.56;5008752;28;20033;-83
2023/08/10 04:21:02;;;;;;;6.05;4.60;;;;;;;13.27;75.09;99243.91;5026758;28;20393;-83
2023/08/10 04:23:28;;;;;;;7.22;5.20;;;;;;;13.39;74.59;99249.88;5032577;28;20025;-83
2023/08/10 04:25:53;;;;;;;7.95;5.20;;;;;;;13.20;75.07;99270.09;5029693;28;20037;-83
2023/08/10 04:28:18;;;;;;;9.38;5.22;;;;;;;13.26;75.16;99253.81;5028238;28;20400;-83
2023/08/10 04:30:44;;;;;;;13.23;5.15;;;;;;;13.45;74.94;99267.66;5023174;28;20049;-83
2023/08/10 04:33:09;;;;;;;7.43;5.13;;;;;;;13.39;75.30;99274.81;5028295;28;20034;-83
2023/08/10 04:35:35;;;;;;;9.82;5.38;;;;;;;13.16;75.94;99256.41;5041859;28;20471;-84
2023/08/10 04:38:00;;;;;;;8.40;4.90;;;;;;;13.35;75.32;99275.59;5030218;28;20079;-81
2023/08/10 04:40:26;;;;;;;9.30;5.78;;;;;;;12.87;76.92;99252.34;5027115;28;20048;-83
2023/08/10 04:42:51;;;;;;;8.77;4.72;;;;;;;12.81;78.10;99280.16;5029671;28;20053;-84
2023/08/10 04:45:17;;;;;;;9.25;5.00;;;;;;;13.06;76.96;99276.97;5026517;28;20041;-84
2023/08/10 04:47:42;;;;;;;8.55;5.20;;;;;;;13.21;76.88;99280.59;5011569;28;20025;-84
2023/08/10 04:50:09;;;;;;;6.68;5.32;;;;;;;13.24;76.42;99277.38;5009701;28;20041;-84
2023/08/10 04:52:34;;;;;;;5.53;4.28;;;;;;;13.21;77.14;99272.56;5028310;28;20029;-83
2023/08/10 04:55:00;;;;;;;11.40;5.25;;;;;;;13.36;77.11;99277.22;5021351;28;20076;-84
2023/08/10 04:57:26;;;;;;;7.28;4.53;;;;;;;13.31;76.60;99269.94;5022983;28;20025;-84
2023/08/10 04:59:52;;;;;;;8.02;5.07;;;;;;;13.38;76.59;99270.53;5022065;28;20026;-83
2023/08/10 05:02:17;;;;;;;8.90;5.40;;;;;;;13.42;76.61;99274.31;5025758;28;20077;-83
2023/08/10 05:04:43;;;;;;;6.88;5.03;;;;;;;13.30;77.35;99292.44;5025006;28;20064;-84
2023/08/10 05:07:08;;;;;;;7.25;5.22;;;;;;;13.37;77.43;99270.78;5024022;28;20033;-83
2023/08/10 05:09:34;;;;;;;7.15;5.00;;;;;;;13.66;76.50;99295.41;5010084;28;20030;-84
2023/08/10 05:11:59;;;;;;;8.90;4.93;;;;;;;13.83;76.12;99288.84;5025847;28;20401;-84
2023/08/10 05:14:24;;;;;;;6.03;4.75;;;;;;;13.92;75.61;99297.22;5025077;28;20060;-84
2023/08/10 05:16:50;;;;;;;9.23;4.82;;;;;;;13.92;76.30;99302.56;5021421;28;20030;-83
2023/08/10 05:19:15;;;;;;;5.45;4.63;;;;;;;13.95;75.55;99283.28;5022683;28;20489;-83
2023/08/10 05:21:40;;;;;;;8.60;5.57;;;;;;;13.83;75.84;99270.06;5023200;28;20068;-84
2023/08/10 05:24:06;;;;;;;8.02;4.95;;;;;;;14.10;75.99;99300.28;5039168;28;20116;-83
2023/08/10 05:26:32;;;;;;;9.27;6.60;;;;;;;13.99;76.63;99287.88;5028676;28;20142;-84
2023/08/10 05:28:58;;;;;;;6.57;5.50;;;;;;;14.10;75.92;99278.00;5021711;28;20490;-84
2023/08/10 05:31:23;;;;;;;6.95;4.80;;;;;;;14.17;75.27;99286.63;5039171;28;20116;-84
2023/08/10 05:33:49;;;;;;;10.25;5.05;;;;;;;14.21;75.71;99280.47;5027562;28;20355;-84
2023/08/10 05:36:14;;;;;;;10.05;5.85;;;;;;;14.35;75.28;99288.09;5025615;28;20209;-84
2023/08/10 05:38:39;;;;;;;10.40;5.85;;;;;;;14.19;76.48;99293.38;5025242;28;20029;-83
2023/08/10 05:41:05;;;;;;;5.78;4.90;;;;;;;14.17;75.75;99287.44;4996730;28;20076;-83
2023/08/10 05:43:31;;;;;;;9.70;6.18;;;;;;;14.21;76.36;99291.22;5023837;28;20036;-83
2023/08/10 05:45:56;;;;;;;7.32;5.78;;;;;;;14.28;76.31;99302.50;5025661;28;20025;-83
2023/08/10 05:48:22;;;;;;;10.20;5.55;;;;;;;14.45;75.90;99310.44;5024942;28;20033;-84
2023/08/10 05:50:48;;;;;;;10.98;6.13;;;;;;;14.33;76.36;99290.25;5038133;28;20025;-84
2023/08/10 05:53:14;;;;;;;8.25;6.30;;;;;;;14.33;76.41;99299.06;5027995;28;20037;-85
2023/08/10 05:55:39;;;;;;;13.20;6.13;;;;;;;14.24;76.69;99290.69;5026070;28;20022;-84
2023/08/10 05:58:05;;;;;;;11.75;6.72;;;;;;;14.15;78.31;99300.28;5028146;28;20025;-84
2023/08/10 06:00:31;;;;;;;12.82;6.30;;;;;;;13.85;80.29;99291.25;5025768;28;20037;-83
2023/08/10 06:02:56;;;;;;;11.85;6.10;;;;;;;14.21;77.33;99293.91;5023328;28;20492;-84
2023/08/10 06:05:22;;;;;;;12.93;6.80;;;;;;;14.09;79.34;99311.25;5026283;28;20033;-84
2023/08/10 06:07:48;;;;;;;11.75;6.57;;;;;;;13.92;79.92;99303.38;5026955;28;20036;-84
2023/08/10 06:10:18;;;;;;;11.32;7.05;;;;;;;14.13;79.35;99318.53;5027627;28;20037;-84
2023/08/10 06:12:44;;;;;;;11.20;6.13;;;;;;;14.31;77.96;99309.28;5020406;28;20108;-84
2023/08/10 06:15:10;;;;;;;12.05;7.43;;;;;;;14.30;77.87;99314.91;5025469;28;20478;-83
2023/08/10 06:17:37;;;;;;;11.43;6.35;;;;;;;14.20;78.27;99311.06;5024411;28;20045;-84
2023/08/10 06:20:09;;;;;;;10.57;6.90;;;;;;;13.89;83.87;99306.56;5042333;28;20032;-83
2023/08/10 06:22:38;;;;;;;13.13;7.80;;;;;;;13.64;86.08;99301.03;5011877;28;20051;-83
2023/08/10 06:25:04;;;;;;;13.60;9.35;;;;;;;13.45;87.19;99308.66;5026823;28;20033;-84
2023/08/10 06:27:30;;;;;;;11.70;8.18;;;;;;;13.15;87.82;99311.06;5019064;28;20033;-83
2023/08/10 06:29:56;;;;;;;13.25;8.52;;;;;;;12.93;89.24;99306.81;5027370;28;20033;-84
2023/08/10 06:32:21;;;;;;;14.00;8.90;;;;;;;12.86;90.14;99298.16;5019581;28;20033;-83
2023/08/10 06:34:47;;;;;;;17.15;9.27;;;;;;;12.91;91.64;99312.41;5026921;28;20124;-83
2023/08/10 06:37:15;;;;;;;14.85;9.38;;;;;;;12.94;91.83;99308.41;5007583;28;20509;-83
2023/08/10 06:39:41;;;;;;;11.73;8.45;;;;;;;13.06;91.91;99330.56;5028848;28;20513;-83
2023/08/10 06:42:06;;;;;;;14.00;8.13;;;;;;;13.04;91.23;99316.56;5024107;28;20037;-83
2023/08/10 06:44:32;;;;;;;20.17;10.43;;;;;;;13.08;90.74;99331.94;5005420;28;20048;-83
2023/08/10 06:46:57;;;;;;;11.30;8.77;;;;;;;12.97;90.47;99319.47;5024499;28;20029;-82
2023/08/10 06:49:23;;;;;;;14.82;9.43;;;;;;;13.00;91.55;99310.88;5011000;28;20030;-82
2023/08/10 06:51:50;;;;;;;11.38;8.75;;;;;;;13.01;90.58;99317.06;5024444;28;20037;-82
2023/08/10 06:54:16;;;;;;;12.52;8.50;;;;;;;13.06;90.43;99317.94;5022680;28;20064;-82
2023/08/10 06:56:41;;;;;;;13.05;8.02;;;;;;;13.30;90.19;99340.69;5040962;28;20438;-83
2023/08/10 06:59:07;;;;;;;9.00;7.32;;;;;;;13.38;88.88;99326.03;5026258;28;20037;-83
2023/08/10 07:01:33;;;;;;;13.80;7.32;;;;;;;13.71;86.39;99330.34;5020296;28;20079;-83
2023/08/10 07:03:59;;;;;;;10.77;8.13;;;;;;;13.60;86.94;99328.63;5026393;28;20032;-83
2023/08/10 07:06:25;;;;;;;14.70;8.63;;;;;;;13.54;86.75;99346.56;5009892;28;20492;-83
2023/08/10 07:08:52;;;;;;;14.77;8.00;;;;;;;13.31;88.89;99325.44;5026228;28;20037;-82
2023/08/10 07:11:19;;;;;;;7.85;5.68;;;;;;;13.88;85.79;99333.69;5027353;28;20125;-83
2023/08/10 07:13:46;;;;;;;14.90;4.53;;;;;;;14.25;83.10;99334.47;5008362;28;20064;-84
2023/08/10 07:16:12;;;;;;;12.32;5.13;;;;;;;14.67;81.14;99329.88;5010401;28;20033;-84
2023/08/10 07:18:38;;;;;;;7.88;4.88;;;;;;;14.78;80.76;99347.66;5022952;28;20034;-84
2023/08/10 07:21:04;;;;;;;11.30;4.75;;;;;;;14.90;78.84;99340.16;5040531;28;20029;-83
2023/08/10 07:23:30;;;;;;;6.45;3.70;;;;;;;15.12;77.44;99333.75;5027162;28;20053;-84
2023/08/10 07:25:58;;;;;;;6.07;4.20;;;;;;;15.13;76.78;99325.44;5012460;28;20393;-84
2023/08/10 07:28:25;;;;;;;6.68;3.10;;;;;;;15.28;75.32;99325.44;5027031;28;20099;-83
2023/08/10 07:30:51;;;;;;;8.07;3.90;;;;;;;15.32;75.00;99339.16;5023598;28;20091;-83
2023/08/10 07:33:16;;;;;;;5.30;2.95;;;;;;;15.11;77.31;99342.91;5017051;28;20059;-83
2023/08/10 07:35:42;;;;;;;5.78;3.05;;;;;;;15.31;75.18;99321.44;5026626;28;20025;-83
2023/08/10 07:38:09;;;;;;;8.02;2.55;;;;;;;15.56;74.74;99340.28;5024901;28;20043;-83
2023/08/10 07:40:34;;;;;;;6.13;3.97;;;;;;;15.53;74.34;99346.25;5016963;28;20037;-84
2023/08/10 07:42:59;;;;;;;5.65;4.22;;;;;;;15.55;74.18;99338.69;5025194;28;20032;-83
2023/08/10 07:45:25;;;;;;;3.67;2.47;;;;;;;15.46;74.80;99335.75;5010220;28;20447;-83
2023/08/10 07:47:50;;;;;;;8.88;3.30;;;;;;;15.49;74.25;99335.19;5012139;28;20116;-83
2023/08/10 07:50:15;;;;;;;8.40;3.85;;;;;;;15.52;74.39;99325.78;5012511;28;20041;-83
2023/08/10 07:52:41;;;;;;;7.25;3.45;;;;;;;15.77;73.47;99345.41;5030192;28;20029;-83
2023/08/10 07:55:07;;;;;;;6.07;2.75;;;;;;;15.58;73.74;99344.34;5032661;28;20057;-83
2023/08/10 07:57:32;;;;;;;7.13;3.00;;;;;;;15.80;73.04;99340.56;5030329;28;20022;-84
2023/08/10 08:00:01;;;;;;;8.07;3.15;;;;;;;15.67;74.20;99334.66;5009849;28;20046;-83
2023/08/10 08:02:28;;;;;;;10.80;3.85;;;;;;;15.34;73.93;99334.31;5014719;28;20456;-83
2023/08/10 08:04:54;;;;;;;8.70;2.70;;;;;;;15.79;73.26;99342.47;5030985;28;20083;-82
2023/08/10 08:07:19;;;;;;;5.97;3.78;;;;;;;15.93;72.92;99348.91;5012453;28;20025;-83
2023/08/10 08:09:44;;;;;;;9.95;3.15;;;;;;;16.03;72.39;99340.81;5030195;28;20030;-83
2023/08/10 08:12:11;;;;;;;6.63;2.80;;;;;;;15.86;73.54;99351.06;5027275;28;20052;-83
2023/08/10 08:14:36;;;;;;;7.18;3.33;;;;;;;16.14;72.38;99363.94;5013666;28;20036;-83
2023/08/10 08:17:02;;;;;;;6.65;2.67;;;;;;;16.06;71.75;99351.03;5028465;28;20115;-83
2023/08/10 08:19:27;;;;;;;6.03;3.35;;;;;;;16.18;71.79;99354.28;5012963;28;20080;-83
2023/08/10 08:21:52;;;;;;;5.90;2.85;;;;;;;16.13;71.80;99345.38;5017527;28;20580;-82
2023/08/10 08:24:18;;;;;;;4.93;3.17;;;;;;;16.20;73.03;99348.59;5011483;28;20057;-82
2023/08/10 08:26:43;;;;;;;5.50;3.15;;;;;;;16.22;72.83;99358.03;5041071;28;20057;-82
2023/08/10 08:29:09;;;;;;;4.72;2.80;;;;;;;16.35;71.12;99352.06;5009053;28;20030;-83
2023/08/10 08:31:35;;;;;;;6.05;2.75;;;;;;;16.37;70.68;99346.41;5012390;28;20373;-83
2023/08/10 08:34:01;;;;;;;6.85;3.50;;;;;;;16.35;70.64;99348.56;5027568;28;20036;-82
2023/08/10 08:36:26;;;;;;;4.20;3.00;;;;;;;16.36;71.06;99344.78;5011219;28;20041;-83
2023/08/10 08:38:52;;;;;;;9.73;3.10;;;;;;;16.61;69.57;99354.72;5026606;28;20025;-83
2023/08/10 08:41:20;;;;;;;4.97;2.72;;;;;;;16.56;70.05;99355.53;5042612;28;20034;-83
2023/08/10 08:43:47;;;;;;;4.85;3.10;;;;;;;16.27;69.98;99341.06;5041188;28;20040;-83
2023/08/10 08:46:13;;;;;;;7.15;3.33;;;;;;;16.37;70.92;99349.91;5030626;28;20034;-83
2023/08/10 08:48:39;;;;;;;8.30;3.38;;;;;;;16.71;69.22;99335.81;5026647;28;20124;-83
2023/08/10 08:51:05;;;;;;;7.00;3.30;;;;;;;16.47;69.72;99330.19;5029012;28;20129;-84
2023/08/10 08:53:32;;;;;;;7.45;3.08;;;;;;;16.54;69.77;99319.97;5012206;28;20465;-83
2023/08/10 08:55:57;;;;;;;5.60;2.90;;;;;;;16.37;69.60;99316.78;5028688;28;20060;-83
2023/08/10 08:58:23;;;;;;;6.25;3.67;;;;;;;16.72;68.45;99332.03;5025000;28;20061;-83
2023/08/10 09:00:50;;;;;;;8.80;3.38;;;;;;;16.76;69.23;99336.59;5040152;28;20029;-83
2023/08/10 09:03:20;;;;;;;3.85;3.03;;;;;;;16.96;68.16;99344.59;5026449;28;20034;-83
2023/08/10 09:05:46;;;;;;;6.00;3.22;;;;;;;16.99;68.40;99344.03;5029378;28;20044;-84
2023/08/10 09:08:14;;;;;;;5.10;3.25;;;;;;;16.93;68.32;99330.84;5005511;28;20409;-83
2023/08/10 09:10:40;;;;;;;5.95;3.22;;;;;;;17.03;67.80;99344.28;5026677;28;20459;-83
2023/08/10 09:13:18;;;;;;;5.03;3.00;;;;;;;17.20;66.97;99347.41;5011763;28;20044;-83
2023/08/10 09:15:44;;;;;;;6.43;3.17;;;;;;;17.08;67.28;99325.38;5022522;28;20473;-83
2023/08/10 09:18:10;;;;;;;5.30;2.85;;;;;;;17.11;67.06;99314.84;5024538;28;20033;-84
2023/08/10 09:20:36;;;;;;;3.78;3.00;;;;;;;17.30;66.18;99344.66;5028329;28;20448;-84
2023/08/10 09:23:02;;;;;;;4.72;3.28;;;;;;;17.28;67.38;99341.44;4993412;28;21483;-83
2023/08/10 09:25:38;;;;;;;4.78;3.78;;;;;;;17.19;65.85;99305.31;5025278;28;20079;-82
2023/08/10 09:28:11;;;;;;;8.93;3.30;;;;;;;17.31;66.56;99321.19;5026107;28;20716;-83
2023/08/10 09:30:36;;;;;;;9.90;3.33;;;;;;;17.31;65.62;99307.69;5027426;28;20072;-84
2023/08/10 09:33:02;;;;;;;10.63;3.92;;;;;;;17.49;65.38;99310.53;5027695;28;20103;-83
2023/08/10 09:35:31;;;;;;;5.28;3.13;;;;;;;17.67;65.74;99338.78;5012630;28;20029;-83
2023/08/10 09:38:04;;;;;;;5.82;3.08;;;;;;;17.76;65.07;99318.16;5006682;28;20485;-83
2023/08/10 09:40:29;;;;;;;8.80;3.35;;;;;;;17.91;64.25;99326.91;5021543;28;20048;-83
2023/08/10 09:42:55;;;;;;;8.23;2.97;;;;;;;17.94;63.97;99342.56;5025513;28;20057;-83
2023/08/10 09:45:21;;;;;;;5.25;2.88;;;;;;;17.86;63.80;99340.50;5025356;28;20456;-84
2023/08/10 09:47:46;;;;;;;5.57;3.00;;;;;;;17.92;63.87;99336.66;5011416;28;20123;-84
2023/08/10 09:50:14;;;;;;;4.20;2.55;;;;;;;18.13;62.99;99344.56;5027834;28;20112;-83
2023/08/10 09:52:41;;;;;;;7.43;2.65;;;;;;;17.92;61.83;99339.34;5027941;28;20033;-83
2023/08/10 09:55:08;;;;;;;4.60;3.10;;;;;;;17.74;62.59;99334.63;5026811;28;20029;-84
2023/08/10 09:57:40;;;;;;;3.63;2.97;;;;;;;18.25;62.61;99342.28;5024531;28;20029;-83
2023/08/10 10:00:09;;;;;;;3.53;2.88;;;;;;;18.47;62.07;99346.13;5024708;28;20059;-83
2023/08/10 10:02:35;;;;;;;4.78;2.85;;;;;;;18.47;62.69;99343.41;5026409;28;20136;-84
2023/08/10 10:05:00;;;;;;;8.27;3.08;;;;;;;18.41;62.29;99341.03;5029647;28;20982;-83
2023/08/10 10:07:28;;;;;;;6.13;2.78;;;;;;;18.44;62.77;99326.91;5029339;28;20120;-84
2023/08/10 10:09:57;;;;;;;5.22;2.35;;;;;;;18.54;61.87;99333.03;5030354;28;20040;-83
2023/08/10 10:12:23;;;;;;;3.75;2.70;;;;;;;18.57;61.46;99323.56;5025107;28;20072;-84
2023/08/10 10:14:49;;;;;;;2.60;2.38;;;;;;;18.83;60.95;99326.78;5027214;28;20029;-84
2023/08/10 10:17:16;;;;;;;4.63;2.45;;;;;;;18.46;60.14;99311.25;5011430;28;20043;-84
2023/08/10 10:19:43;;;;;;;8.45;2.70;;;;;;;18.80;60.29;99333.56;5025033;28;20112;-83
2023/08/10 10:22:09;;;;;;;2.88;2.40;;;;;;;18.94;58.45;99330.91;5026522;28;20034;-84
2023/08/10 10:24:39;;;;;;;3.35;2.50;;;;;;;18.79;58.44;99334.63;5026376;28;20025;-83
2023/08/10 10:27:10;;;;;;;5.68;2.33;;;;;;;18.88;60.11;99326.69;5029085;28;20029;-84
2023/08/10 10:29:48;;;;;;;4.15;2.08;;;;;;;19.09;58.02;99309.88;5030382;28;20377;-84
2023/08/10 10:32:19;;;;;;;5.82;2.15;;;;;;;19.30;57.84;99324.75;5023114;28;20041;-84
2023/08/10 10:34:45;;;;;;;6.00;2.70;;;;;;;19.10;59.55;99325.03;5029265;28;20123;-83
2023/08/10 10:37:16;;;;;;;5.78;2.53;;;;;;;19.26;58.41;99304.75;5027047;28;20025;-84
2023/08/10 10:39:43;;;;;;;4.28;2.47;;;;;;;19.46;57.40;99322.66;5027160;28;20036;-83
2023/08/10 10:42:12;;;;;;;6.28;2.70;;;;;;;19.42;59.36;99295.34;5041275;28;20049;-84
2023/08/10 10:44:58;;;;;;;5.80;2.75;;;;;;;19.56;59.03;99325.19;5028545;28;20025;-84
2023/08/10 10:47:59;;;;;;;7.88;3.10;;;;;;;19.93;56.82;99327.81;5029493;28;20505;-84
2023/08/10 10:50:28;;;;;;;5.88;2.50;;;;;;;19.91;57.30;99313.75;4988928;28;20036;-82
2023/08/10 10:53:02;;;;;;;5.80;2.67;;;;;;;20.12;56.27;99322.31;5026919;28;20049;-83
2023/08/10 10:55:38;;;;;;;7.93;2.35;;;;;;;20.13;56.46;99299.53;5023345;28;20060;-82
2023/08/10 10:58:06;;;;;;;5.57;2.20;;;;;;;20.45;56.63;99302.19;5027039;28;20032;-82
2023/08/10 11:00:33;;;;;;;5.18;2.20;;;;;;;20.71;55.22;99306.00;5027308;28;20087;-82
2023/08/10 11:03:02;;;;;;;5.28;1.95;;;;;;;20.64;54.73;99285.81;5006176;28;20034;-82
2023/08/10 11:05:27;;;;;;;7.90;2.90;;;;;;;20.66;54.24;99291.75;5029585;28;20112;-82
2023/08/10 11:07:53;;;;;;;4.90;2.60;;;;;;;20.93;55.66;99297.91;5015781;28;20116;-82
2023/08/10 11:10:21;;;;;;;5.32;2.45;;;;;;;20.97;53.58;99291.88;5026900;28;20036;-82
2023/08/10 11:12:48;;;;;;;3.03;2.28;;;;;;;21.17;53.28;99311.25;5026581;28;20041;-83
2023/08/10 11:15:16;;;;;;;5.68;2.22;;;;;;;21.34;54.31;99307.91;5030521;28;20436;-83
2023/08/10 11:17:46;;;;;;;5.78;2.20;;;;;;;21.14;53.98;99311.88;5025323;28;20033;-83
2023/08/10 11:20:14;;;;;;;4.22;2.28;;;;;;;20.98;52.76;99315.19;5027860;28;20033;-83
2023/08/10 11:22:44;;;;;;;5.13;2.10;;;;;;;21.07;51.53;99292.50;5029922;28;20405;-82
2023/08/10 11:25:12;;;;;;;8.43;3.45;;;;;;;21.49;50.85;99294.72;4998089;28;20032;-82
2023/08/10 11:27:40;;;;;;;11.02;4.72;;;;;;;21.57;51.95;99282.34;5030833;28;20068;-83
2023/08/10 11:30:09;;;;;;;2.65;2.10;;;;;;;21.55;51.76;99282.66;5012096;28;20026;-82